48FD weather

Delray Medical Center Emergency Helistop
Delray Beach, Florida, United States

Public forecast

Using degrees Fahrenheit for public forecast. Weather courtesy of forecast.io.

METAR (pilot weather report)

Closest report is Boca Raton Airport, 3.6 nm (6.7 km) SSE. Retrieved 2019/06/17 17:53 UTC (45 minutes ago):

KBCT 171753Z 24010KT 6SM VCTS SCT024 27/23 A3007 RMK LTG DSNT ALQDS

TAF (pilot weather forecast)

Closest forecast is Fort Lauderdale Executive Airport, 14.5 nm (26.9 km) S. Retrieved 2019/06/17 18:30 UTC (8 minutes ago):

TAF KFXE 171727Z 1718/1818 16011KT P6SM SHRA VCTS SCT040CB BKN250 FM180000 15006KT P6SM VCSH SCT025 BKN070 FM181400 20012KT P6SM VCTS SCT030CB BKN050